createdAt,value
2018-11-28T00:00:11.529Z,61.67
2018-11-28T00:02:39.206Z,58.13
2018-11-28T00:05:10.949Z,49.73
2018-11-28T00:07:38.933Z,56.23
2018-11-28T00:10:12.045Z,67.00
2018-11-28T00:12:39.922Z,57.67
2018-11-28T00:15:11.680Z,52.90
2018-11-28T00:17:39.358Z,56.63
2018-11-28T00:20:09.898Z,61.63
2018-11-28T00:22:37.729Z,51.80
2018-11-28T00:25:06.689Z,57.53
2018-11-28T00:27:34.420Z,58.80
2018-11-28T00:30:02.229Z,53.30
2018-11-28T00:32:29.879Z,58.13
2018-11-28T00:34:57.551Z,55.90
2018-11-28T00:37:25.280Z,57.77
2018-11-28T00:39:59.726Z,56.77
2018-11-28T00:42:30.111Z,65.10
2018-11-28T00:44:58.270Z,56.40
2018-11-28T00:47:26.045Z,54.33
2018-11-28T00:49:53.910Z,53.87
2018-11-28T00:52:21.693Z,56.68
2018-11-28T00:54:49.543Z,61.98
2018-11-28T00:57:17.198Z,57.30
2018-11-28T00:59:44.808Z,58.30
2018-11-28T01:02:12.575Z,56.93
2018-11-28T01:04:40.225Z,58.20
2018-11-28T01:07:07.940Z,57.38
2018-11-28T01:09:35.569Z,59.13
2018-11-28T01:12:03.293Z,57.97
2018-11-28T01:14:31.006Z,64.63
2018-11-28T01:16:58.692Z,55.70
2018-11-28T01:19:26.412Z,49.88
2018-11-28T01:21:54.153Z,53.23
2018-11-28T01:24:21.804Z,58.67
2018-11-28T01:26:49.470Z,49.53
2018-11-28T01:29:17.129Z,50.80
2018-11-28T01:31:44.733Z,51.17
2018-11-28T01:34:12.434Z,56.15
2018-11-28T01:36:40.142Z,60.23
2018-11-28T01:39:07.880Z,51.97
2018-11-28T01:41:35.574Z,48.93
2018-11-28T01:44:03.241Z,49.40
2018-11-28T01:46:31.041Z,55.83
2018-11-28T01:48:58.700Z,56.90
2018-11-28T01:51:26.322Z,49.40
2018-11-28T01:53:53.987Z,53.33
2018-11-28T01:56:21.730Z,51.10
2018-11-28T01:58:49.857Z,58.13
2018-11-28T02:01:17.588Z,53.17
2018-11-28T02:03:45.230Z,51.03
2018-11-28T02:06:12.912Z,44.60
2018-11-28T02:08:40.601Z,46.33
2018-11-28T02:11:08.339Z,52.90
2018-11-28T02:13:36.082Z,50.65
2018-11-28T02:16:03.839Z,54.60
2018-11-28T02:18:31.530Z,47.43
2018-11-28T02:20:59.278Z,53.33
2018-11-28T02:23:27.037Z,44.50
2018-11-28T02:25:54.723Z,52.03
2018-11-28T02:28:22.533Z,48.73
2018-11-28T02:30:50.272Z,45.43
2018-11-28T02:33:17.950Z,48.02
2018-11-28T02:35:45.679Z,46.02
2018-11-28T02:38:13.360Z,44.87
2018-11-28T02:40:41.052Z,46.57
2018-11-28T02:43:08.891Z,46.43
2018-11-28T02:45:36.835Z,52.57
2018-11-28T02:48:05.384Z,43.90
2018-11-28T02:50:33.495Z,43.33
2018-11-28T02:53:01.153Z,44.63
2018-11-28T02:55:28.913Z,50.23
2018-11-28T02:57:56.631Z,42.27
2018-11-28T03:00:25.319Z,49.57
2018-11-28T03:02:53.234Z,44.80
2018-11-28T03:05:21.081Z,47.97
2018-11-28T03:07:48.843Z,52.13
2018-11-28T03:10:18.894Z,50.05
2018-11-28T03:12:46.671Z,48.23
2018-11-28T03:15:22.134Z,42.23
2018-11-28T03:17:49.872Z,49.60
2018-11-28T03:20:17.668Z,43.83
2018-11-28T03:22:45.317Z,48.35
2018-11-28T03:25:13.029Z,43.33
2018-11-28T03:27:40.704Z,48.13
2018-11-28T03:30:14.173Z,47.00
2018-11-28T03:32:41.828Z,46.37
2018-11-28T03:35:14.567Z,46.43
2018-11-28T03:37:42.553Z,44.00
2018-11-28T03:40:10.527Z,40.97
2018-11-28T03:42:38.271Z,47.93
2018-11-28T03:45:11.177Z,46.53
2018-11-28T03:47:39.017Z,42.00
2018-11-28T03:50:09.102Z,41.67
2018-11-28T03:52:37.790Z,40.60
2018-11-28T03:55:08.886Z,44.93
2018-11-28T03:57:36.554Z,40.40
2018-11-28T04:00:09.360Z,43.02
2018-11-28T04:02:37.098Z,46.40
2018-11-28T04:05:05.341Z,38.60
2018-11-28T04:07:33.181Z,40.30
2018-11-28T04:10:00.862Z,46.17
2018-11-28T04:12:28.589Z,40.48
2018-11-28T04:14:56.265Z,38.78
2018-11-28T04:17:23.914Z,40.20
2018-11-28T04:19:51.717Z,42.07
2018-11-28T04:22:19.446Z,35.47
2018-11-28T04:24:47.086Z,39.08
2018-11-28T04:27:15.700Z,39.55
2018-11-28T04:29:44.274Z,40.83
2018-11-28T04:32:12.011Z,40.73
2018-11-28T04:34:39.647Z,42.62
2018-11-28T04:37:07.387Z,40.70
2018-11-28T04:39:35.165Z,44.17
2018-11-28T04:42:02.907Z,38.40
2018-11-28T04:44:30.704Z,47.83
2018-11-28T04:46:58.430Z,44.73
2018-11-28T04:49:26.150Z,44.95
2018-11-28T04:52:00.603Z,37.80
2018-11-28T04:54:29.485Z,45.57
2018-11-28T04:56:57.157Z,41.37
2018-11-28T04:59:24.869Z,41.77
2018-11-28T05:01:52.636Z,42.45
2018-11-28T05:04:20.500Z,42.47
2018-11-28T05:07:52.217Z,42.30
2018-11-28T05:10:23.008Z,42.80
2018-11-28T05:12:51.502Z,43.20
2018-11-28T05:15:23.602Z,40.50
2018-11-28T05:17:53.423Z,42.73
2018-11-28T05:20:21.974Z,43.77
2018-11-28T05:22:49.871Z,40.90
2018-11-28T05:25:19.860Z,38.57
2018-11-28T05:27:48.560Z,42.70
2018-11-28T05:30:24.681Z,43.67
2018-11-28T05:32:52.401Z,41.50
2018-11-28T05:35:24.935Z,49.53
2018-11-28T05:37:53.209Z,39.80
2018-11-28T05:40:26.298Z,39.43
2018-11-28T05:42:54.432Z,37.20
2018-11-28T05:45:22.550Z,38.37
2018-11-28T05:47:50.241Z,42.80
2018-11-28T05:50:20.192Z,34.73
2018-11-28T05:52:47.946Z,43.30
2018-11-28T05:55:17.279Z,45.53
2018-11-28T05:57:45.079Z,41.80
2018-11-28T06:00:22.765Z,45.73
2018-11-28T06:02:50.488Z,43.30
2018-11-28T06:05:18.205Z,40.33
2018-11-28T06:07:45.913Z,45.00
2018-11-28T06:10:13.631Z,50.13
2018-11-28T06:12:43.787Z,43.90
2018-11-28T06:15:12.237Z,41.93
2018-11-28T06:17:39.964Z,38.93
2018-11-28T06:20:13.779Z,35.52
2018-11-28T06:22:42.184Z,37.83
2018-11-28T06:25:17.990Z,38.93
2018-11-28T06:27:51.683Z,36.73
2018-11-28T06:30:20.061Z,33.07
2018-11-28T06:32:51.306Z,39.87
2018-11-28T06:35:15.547Z,32.33
2018-11-28T06:37:43.559Z,35.88
2018-11-28T06:40:14.485Z,40.45
2018-11-28T06:42:43.343Z,35.00
2018-11-28T06:45:13.140Z,36.13
2018-11-28T06:47:41.899Z,29.67
2018-11-28T06:50:13.408Z,34.70
2018-11-28T06:52:41.717Z,26.60
2018-11-28T06:55:14.281Z,36.47
2018-11-28T06:57:42.194Z,30.57
2018-11-28T07:00:15.689Z,39.67
2018-11-28T07:02:45.322Z,33.67
2018-11-28T07:05:13.823Z,35.00
2018-11-28T07:07:41.635Z,41.53
2018-11-28T07:10:11.343Z,39.80
2018-11-28T07:12:40.389Z,51.63
2018-11-28T07:15:11.669Z,50.17
2018-11-28T07:17:40.262Z,41.60
2018-11-28T07:20:12.250Z,36.43
2018-11-28T07:22:40.001Z,37.17
2018-11-28T07:25:09.710Z,42.80
2018-11-28T07:27:37.468Z,35.93
2018-11-28T07:30:13.522Z,36.97
2018-11-28T07:32:41.997Z,42.00
2018-11-28T07:35:10.766Z,40.30
2018-11-28T07:37:38.583Z,39.87
2018-11-28T07:40:15.697Z,42.50
2018-11-28T07:42:48.726Z,39.90
2018-11-28T07:45:16.461Z,35.17
2018-11-28T07:47:44.225Z,40.25
2018-11-28T07:50:13.118Z,36.17
2018-11-28T07:52:40.803Z,42.40
2018-11-28T07:55:11.712Z,36.28
2018-11-28T07:57:39.604Z,39.30
2018-11-28T08:00:13.253Z,35.93
2018-11-28T08:02:41.753Z,36.70
2018-11-28T08:05:10.862Z,39.03
2018-11-28T08:07:39.375Z,30.53
2018-11-28T08:10:16.654Z,36.03
2018-11-28T08:12:44.407Z,36.47
2018-11-28T08:15:12.142Z,35.80
2018-11-28T08:17:39.829Z,34.10
2018-11-28T08:20:07.622Z,38.53
2018-11-28T08:22:36.222Z,32.67
2018-11-28T08:25:03.483Z,37.03
2018-11-28T08:27:31.000Z,32.70
2018-11-28T08:29:58.698Z,31.80
2018-11-28T08:32:26.447Z,44.67
2018-11-28T08:34:54.205Z,29.52
2018-11-28T08:37:21.912Z,33.15
2018-11-28T08:39:49.678Z,35.20
2018-11-28T08:42:17.490Z,44.63
2018-11-28T08:44:45.194Z,32.20
2018-11-28T08:47:12.988Z,37.37
2018-11-28T08:49:40.686Z,30.68
2018-11-28T08:52:08.382Z,34.73
2018-11-28T08:54:36.127Z,32.70
2018-11-28T08:57:04.200Z,30.68
2018-11-28T08:59:31.668Z,34.40
2018-11-28T09:01:59.353Z,33.00
2018-11-28T09:04:27.124Z,37.00
2018-11-28T09:06:54.905Z,34.37
2018-11-28T09:09:22.743Z,32.20
2018-11-28T09:11:50.412Z,31.10
2018-11-28T09:14:18.101Z,34.92
2018-11-28T09:16:45.898Z,36.17
2018-11-28T09:19:13.609Z,37.40
2018-11-28T09:21:41.290Z,37.67
2018-11-28T09:24:09.055Z,28.83
2018-11-28T09:26:36.765Z,43.40
2018-11-28T09:29:05.689Z,36.15
2018-11-28T09:31:33.374Z,37.50
2018-11-28T09:34:01.825Z,37.65
2018-11-28T09:36:29.568Z,42.27
2018-11-28T09:38:57.962Z,42.93
2018-11-28T09:41:25.682Z,36.97
2018-11-28T09:43:53.418Z,35.33
2018-11-28T09:46:21.199Z,39.13
2018-11-28T09:48:48.938Z,33.73
2018-11-28T09:51:16.649Z,38.27
2018-11-28T09:53:44.330Z,38.67
2018-11-28T09:56:12.049Z,40.00
2018-11-28T09:58:39.725Z,38.05
2018-11-28T10:01:07.970Z,44.67
2018-11-28T10:03:35.690Z,38.97
2018-11-28T10:06:03.556Z,36.20
2018-11-28T10:08:31.251Z,35.15
2018-11-28T10:10:59.105Z,37.27
2018-11-28T10:13:27.043Z,41.53
2018-11-28T10:15:54.608Z,33.03
2018-11-28T10:18:22.431Z,34.20
2018-11-28T10:20:50.144Z,38.03
2018-11-28T10:23:17.887Z,41.42
2018-11-28T10:25:45.663Z,44.27
2018-11-28T10:28:13.379Z,35.87
2018-11-28T10:30:41.109Z,37.65
2018-11-28T10:33:11.252Z,39.27
2018-11-28T10:35:40.034Z,39.30
2018-11-28T10:38:07.873Z,35.20
2018-11-28T10:40:36.428Z,36.33
2018-11-28T10:43:05.039Z,38.07
2018-11-28T10:45:32.889Z,34.10
2018-11-28T10:48:00.694Z,30.80
2018-11-28T10:50:28.553Z,32.70
2018-11-28T10:52:56.299Z,35.40
2018-11-28T10:55:25.272Z,30.50
2018-11-28T10:57:52.980Z,28.80
2018-11-28T11:00:32.900Z,38.38
2018-11-28T11:03:12.292Z,27.70
2018-11-28T11:05:46.702Z,35.60
2018-11-28T11:08:20.175Z,28.83
2018-11-28T11:10:53.727Z,35.60
2018-11-28T11:13:27.289Z,33.50
2018-11-28T11:15:58.631Z,27.00
2018-11-28T11:18:27.470Z,32.30
2018-11-28T11:20:55.136Z,26.97
2018-11-28T11:23:22.943Z,31.27
2018-11-28T11:25:51.205Z,32.17
2018-11-28T11:28:19.363Z,27.93
2018-11-28T11:30:47.290Z,25.63
2018-11-28T11:33:15.248Z,32.47
2018-11-28T11:35:43.003Z,29.90
2018-11-28T11:38:10.788Z,32.70
2018-11-28T11:40:38.569Z,26.90
2018-11-28T11:43:06.784Z,27.82
2018-11-28T11:45:34.660Z,24.80
2018-11-28T11:48:02.423Z,24.67
2018-11-28T11:50:30.211Z,24.80
2018-11-28T11:52:57.933Z,31.50
2018-11-28T11:55:25.644Z,20.50
2018-11-28T11:57:53.613Z,19.63
2018-11-28T12:00:24.492Z,16.03
2018-11-28T12:03:02.522Z,12.93
2018-11-28T12:05:30.221Z,11.50
2018-11-28T12:07:57.919Z,12.88
2018-11-28T12:10:26.481Z,14.65
2018-11-28T12:12:54.267Z,14.83
2018-11-28T12:15:22.036Z,16.17
2018-11-28T12:17:49.899Z,14.35
2018-11-28T12:20:23.158Z,14.30
2018-11-28T12:22:50.832Z,13.40
2018-11-28T12:25:18.531Z,16.02
2018-11-28T12:27:46.512Z,16.30
2018-11-28T12:30:14.921Z,14.55
2018-11-28T12:32:43.393Z,14.43
2018-11-28T12:35:19.184Z,14.27
2018-11-28T12:37:47.022Z,12.97
2018-11-28T12:40:16.150Z,15.30
2018-11-28T12:42:49.197Z,15.47
2018-11-28T12:45:18.266Z,14.17
2018-11-28T12:47:46.834Z,10.97
2018-11-28T12:50:23.091Z,14.17
2018-11-28T12:52:51.833Z,13.10
2018-11-28T12:55:20.163Z,11.80
2018-11-28T12:57:47.983Z,14.23
2018-11-28T13:00:21.169Z,13.80
2018-11-28T13:02:48.958Z,16.93
2018-11-28T13:05:20.231Z,21.57
2018-11-28T13:07:48.042Z,13.83
2018-11-28T13:10:23.463Z,14.13
2018-11-28T13:12:51.424Z,13.27
2018-11-28T13:15:20.495Z,13.40
2018-11-28T13:17:48.158Z,15.60
2018-11-28T13:20:17.525Z,14.58
2018-11-28T13:22:46.721Z,15.37
2018-11-28T13:25:16.325Z,13.80
2018-11-28T13:27:44.103Z,13.33
2018-11-28T13:30:14.474Z,15.00
2018-11-28T13:32:43.904Z,15.90
2018-11-28T13:35:13.205Z,17.30
2018-11-28T13:37:42.209Z,18.10
2018-11-28T13:40:14.445Z,16.73
2018-11-28T13:42:42.277Z,17.47
2018-11-28T13:45:13.815Z,19.27
2018-11-28T13:47:43.084Z,23.03
2018-11-28T13:50:11.174Z,19.37
2018-11-28T13:52:38.896Z,20.57
2018-11-28T13:57:46.543Z,19.77
2018-11-28T14:00:14.242Z,22.60
2018-11-28T14:02:42.029Z,21.97
2018-11-28T14:05:11.571Z,23.33
2018-11-28T14:07:39.266Z,24.67
2018-11-28T14:10:10.857Z,18.50
2018-11-28T14:12:38.585Z,18.57
2018-11-28T14:15:18.232Z,22.93
2018-11-28T14:17:58.695Z,18.73
2018-11-28T14:20:26.532Z,22.43
2018-11-28T14:22:54.336Z,23.87
2018-11-28T14:25:22.030Z,23.32
2018-11-28T14:27:49.784Z,26.30
2018-11-28T14:30:20.022Z,22.70
2018-11-28T14:32:48.038Z,22.57
2018-11-28T14:35:15.990Z,30.93
2018-11-28T14:37:44.157Z,26.33
2018-11-28T14:40:18.806Z,31.13
2018-11-28T14:42:49.146Z,22.83
2018-11-28T14:45:18.242Z,23.70
2018-11-28T14:47:46.814Z,27.90
2018-11-28T14:50:17.005Z,20.07
2018-11-28T14:52:44.936Z,21.23
2018-11-28T14:55:15.687Z,22.13
2018-11-28T14:57:43.406Z,28.17
2018-11-28T15:00:20.752Z,23.38
2018-11-28T15:02:53.314Z,21.73
2018-11-28T15:06:06.294Z,22.73
2018-11-28T15:08:34.107Z,25.60
2018-11-28T15:11:08.130Z,20.77
2018-11-28T15:13:36.934Z,19.20
2018-11-28T15:16:05.128Z,27.40
2018-11-28T15:18:32.857Z,24.97
2018-11-28T15:21:00.549Z,21.50
2018-11-28T15:23:28.230Z,24.82
2018-11-28T15:25:55.930Z,19.97
2018-11-28T15:28:23.731Z,24.93
2018-11-28T15:30:51.514Z,20.80
2018-11-28T15:33:19.248Z,23.63
2018-11-28T15:35:46.938Z,23.45
2018-11-28T15:38:14.726Z,24.10
2018-11-28T15:40:42.474Z,21.33
2018-11-28T15:43:10.218Z,20.03
2018-11-28T15:45:37.925Z,22.83
2018-11-28T15:48:06.106Z,22.73
2018-11-28T15:50:33.901Z,19.40
2018-11-28T15:53:01.628Z,20.93
2018-11-28T15:55:29.753Z,27.70
2018-11-28T15:57:57.434Z,23.30
2018-11-28T16:00:26.137Z,30.83
2018-11-28T16:02:54.135Z,25.40
2018-11-28T16:05:21.919Z,20.95
2018-11-28T16:07:49.686Z,23.92
2018-11-28T16:10:49.640Z,27.40
2018-11-28T16:13:18.328Z,21.37
2018-11-28T16:15:51.275Z,26.63
2018-11-28T16:18:18.994Z,21.77
2018-11-28T16:20:46.699Z,24.72
2018-11-28T16:23:14.464Z,24.05
2018-11-28T16:25:42.170Z,23.50
2018-11-28T16:28:09.968Z,21.53
2018-11-28T16:30:37.736Z,24.07
2018-11-28T16:33:06.629Z,27.40
2018-11-28T16:35:35.464Z,27.93
2018-11-28T16:38:03.535Z,27.17
2018-11-28T16:40:31.311Z,26.70
2018-11-28T16:42:59.063Z,27.00
2018-11-28T16:45:26.887Z,25.43
2018-11-28T16:47:57.580Z,24.65
2018-11-28T16:50:25.425Z,27.60
2018-11-28T16:52:55.218Z,27.50
2018-11-28T16:55:22.948Z,27.47
2018-11-28T16:57:52.513Z,29.60
2018-11-28T17:00:24.595Z,26.17
2018-11-28T17:02:54.402Z,27.23
2018-11-28T17:05:22.717Z,24.33
2018-11-28T17:07:51.075Z,28.53
2018-11-28T17:10:25.704Z,21.97
2018-11-28T17:12:55.896Z,28.87
2018-11-28T17:15:23.707Z,26.80
2018-11-28T17:17:51.477Z,25.50
2018-11-28T17:20:22.264Z,24.30
2018-11-28T17:22:51.743Z,26.60
2018-11-28T17:25:25.386Z,29.00
2018-11-28T17:27:53.881Z,26.07
2018-11-28T17:30:24.674Z,29.30
2018-11-28T17:32:53.531Z,27.50
2018-11-28T17:35:21.285Z,27.20
2018-11-28T17:37:49.207Z,30.27
2018-11-28T17:40:19.539Z,26.60
2018-11-28T17:42:49.620Z,31.10
2018-11-28T17:45:18.185Z,23.67
2018-11-28T17:47:45.937Z,20.70
2018-11-28T17:50:21.728Z,21.60
2018-11-28T17:53:07.345Z,21.03
2018-11-28T17:55:44.536Z,22.67
2018-11-28T17:58:13.330Z,23.07
2018-11-28T18:00:41.112Z,24.27
2018-11-28T18:03:09.508Z,21.20
2018-11-28T18:05:37.329Z,25.07
2018-11-28T18:08:05.286Z,26.90
2018-11-28T18:10:33.023Z,27.27
2018-11-28T18:13:12.707Z,24.25
2018-11-28T18:15:43.577Z,23.03
2018-11-28T18:18:13.250Z,24.70
2018-11-28T18:20:41.695Z,29.67
2018-11-28T18:23:10.136Z,24.97
2018-11-28T18:25:39.222Z,33.07
2018-11-28T18:30:30.307Z,33.67
2018-11-28T18:32:58.122Z,26.70
2018-11-28T18:35:27.241Z,29.73
2018-11-28T18:37:55.052Z,28.40
2018-11-28T18:40:22.753Z,27.80
2018-11-28T18:42:50.452Z,34.43
2018-11-28T18:45:20.841Z,31.25
2018-11-28T18:47:49.135Z,33.60
2018-11-28T18:50:19.034Z,44.03
2018-11-28T18:52:46.763Z,31.53
2018-11-28T18:55:19.790Z,31.57
2018-11-28T18:57:54.601Z,33.87
2018-11-28T19:00:24.834Z,36.97
2018-11-28T19:02:54.536Z,29.90
2018-11-28T19:05:22.221Z,38.33
2018-11-28T19:07:54.824Z,35.90
2018-11-28T19:10:26.411Z,35.67
2018-11-28T19:12:53.338Z,36.63
2018-11-28T19:15:27.972Z,46.00
2018-11-28T19:17:56.909Z,50.17
2018-11-28T19:20:25.677Z,40.70
2018-11-28T19:22:54.848Z,42.73
2018-11-28T19:25:24.907Z,42.97
2018-11-28T19:27:53.613Z,38.57
2018-11-28T19:30:38.432Z,41.60
2018-11-28T19:33:09.438Z,40.47
2018-11-28T19:35:37.183Z,47.57
2018-11-28T19:38:10.581Z,36.87
2018-11-28T19:40:44.559Z,44.13
2018-11-28T19:43:12.226Z,43.50
2018-11-28T19:45:40.661Z,43.10
2018-11-28T19:48:08.800Z,47.27
2018-11-28T19:50:37.718Z,45.97
2018-11-28T19:53:08.024Z,39.80
2018-11-28T19:55:35.738Z,41.67
2018-11-28T19:58:03.868Z,43.60
2018-11-28T20:00:31.563Z,45.97
2018-11-28T20:02:59.903Z,46.33
2018-11-28T20:05:28.994Z,38.13
2018-11-28T20:07:57.431Z,44.17
2018-11-28T20:10:26.464Z,43.00
2018-11-28T20:12:54.556Z,47.23
2018-11-28T20:15:25.203Z,44.33
2018-11-28T20:17:53.070Z,34.77
2018-11-28T20:20:21.325Z,40.50
2018-11-28T20:22:49.677Z,41.87
2018-11-28T20:25:20.622Z,41.27
2018-11-28T20:27:54.721Z,37.67
2018-11-28T20:30:29.925Z,39.90
2018-11-28T20:32:58.660Z,38.43
2018-11-28T20:35:26.968Z,37.97
2018-11-28T20:37:54.720Z,39.50
2018-11-28T20:40:24.369Z,38.90
2018-11-28T20:42:55.118Z,41.10
2018-11-28T20:45:22.910Z,39.20
2018-11-28T20:47:52.087Z,35.50
2018-11-28T20:50:30.141Z,38.57
2018-11-28T20:53:15.262Z,37.07
2018-11-28T20:55:43.393Z,34.07
2018-11-28T20:58:11.737Z,32.40
2018-11-28T21:00:39.422Z,35.30
2018-11-28T21:03:08.454Z,33.47
2018-11-28T21:05:36.357Z,32.60
2018-11-28T21:08:06.281Z,28.43
2018-11-28T21:10:36.879Z,33.83
2018-11-28T21:13:06.709Z,32.47
2018-11-28T21:15:34.450Z,35.70
2018-11-28T21:18:02.223Z,35.63
2018-11-28T21:20:29.936Z,35.10
2018-11-28T21:22:59.716Z,44.38
2018-11-28T21:25:27.371Z,34.20
2018-11-28T21:27:55.051Z,40.00
2018-11-28T21:30:22.768Z,42.58
2018-11-28T21:32:53.217Z,36.37
2018-11-28T21:35:25.009Z,42.60
2018-11-28T21:37:52.736Z,46.33
2018-11-28T21:40:20.366Z,39.27
2018-11-28T21:42:48.023Z,40.70
2018-11-28T21:45:17.403Z,47.13
2018-11-28T21:47:45.136Z,40.27
2018-11-28T21:50:15.397Z,42.70
2018-11-28T21:52:44.133Z,48.47
2018-11-28T21:55:14.993Z,48.67
2018-11-28T21:57:42.837Z,48.97
2018-11-28T22:00:14.757Z,41.50
2018-11-28T22:02:43.265Z,43.80
2018-11-28T22:05:12.511Z,44.70
2018-11-28T22:07:40.246Z,51.27
2018-11-28T22:10:18.502Z,48.57
2018-11-28T22:12:46.276Z,51.80
2018-11-28T22:15:15.783Z,49.73
2018-11-28T22:17:49.883Z,54.07
2018-11-28T22:20:18.521Z,50.77
2018-11-28T22:22:46.234Z,49.30
2018-11-28T22:25:17.155Z,54.27
2018-11-28T22:27:44.806Z,50.90
2018-11-28T22:30:14.241Z,51.60
2018-11-28T22:32:42.057Z,50.23
2018-11-28T22:35:10.422Z,53.83
2018-11-28T22:37:38.129Z,50.50
2018-11-28T22:40:17.567Z,54.17
2018-11-28T22:42:45.238Z,49.37
2018-11-28T22:45:18.045Z,49.63
2018-11-28T22:47:46.526Z,46.57
2018-11-28T22:50:14.424Z,48.53
2018-11-28T22:52:42.142Z,49.53
2018-11-28T22:55:13.124Z,58.03
2018-11-28T22:57:40.774Z,47.77
2018-11-28T23:00:31.175Z,52.25
2018-11-28T23:03:04.689Z,50.73
2018-11-28T23:06:03.611Z,43.53
2018-11-28T23:08:31.374Z,54.73
2018-11-28T23:10:59.053Z,49.10
2018-11-28T23:13:27.348Z,48.25
2018-11-28T23:15:55.086Z,44.20
2018-11-28T23:18:22.722Z,48.30
2018-11-28T23:20:50.374Z,51.02
2018-11-28T23:23:18.992Z,51.10
2018-11-28T23:25:46.683Z,40.90
2018-11-28T23:28:15.141Z,51.77
2018-11-28T23:30:42.865Z,43.73
2018-11-28T23:33:15.854Z,44.90
2018-11-28T23:35:38.300Z,43.90
2018-11-28T23:38:06.881Z,51.23
2018-11-28T23:40:35.160Z,49.60
2018-11-28T23:43:03.282Z,49.40
2018-11-28T23:45:31.886Z,42.90
2018-11-28T23:47:59.574Z,45.00
2018-11-28T23:50:27.322Z,40.70
2018-11-28T23:52:55.695Z,44.42
2018-11-28T23:55:27.378Z,36.97
2018-11-28T23:57:55.546Z,43.07
